sensor_id;sensor_type;location;lat;lon;timestamp;temperature;humidity
2030;DHT22;1020;48.854;8.830;2022-10-03T00:02:07;11.00;99.90
2030;DHT22;1020;48.854;8.830;2022-10-03T00:04:53;11.00;99.90
2030;DHT22;1020;48.854;8.830;2022-10-03T00:07:38;11.00;99.90
2030;DHT22;1020;48.854;8.830;2022-10-03T00:10:20;11.00;99.90
2030;DHT22;1020;48.854;8.830;2022-10-03T00:13:01;11.00;99.90
2030;DHT22;1020;48.854;8.830;2022-10-03T00:15:37;11.00;99.90
2030;DHT22;1020;48.854;8.830;2022-10-03T00:18:16;11.00;99.90
2030;DHT22;1020;48.854;8.830;2022-10-03T00:20:49;11.00;99.90
2030;DHT22;1020;48.854;8.830;2022-10-03T00:23:25;11.00;99.90
2030;DHT22;1020;48.854;8.830;2022-10-03T00:26:02;11.00;99.90
2030;DHT22;1020;48.854;8.830;2022-10-03T00:29:01;11.30;99.90
2030;DHT22;1020;48.854;8.830;2022-10-03T00:31:40;10.90;99.90
2030;DHT22;1020;48.854;8.830;2022-10-03T00:34:23;10.90;99.90
2030;DHT22;1020;48.854;8.830;2022-10-03T00:37:06;10.90;99.90
2030;DHT22;1020;48.854;8.830;2022-10-03T00:39:42;10.90;99.90
2030;DHT22;1020;48.854;8.830;2022-10-03T00:45:44;10.90;99.90
2030;DHT22;1020;48.854;8.830;2022-10-03T00:51:39;11.00;99.90
2030;DHT22;1020;48.854;8.830;2022-10-03T00:54:34;11.00;99.90
2030;DHT22;1020;48.854;8.830;2022-10-03T00:57:16;11.00;99.90
2030;DHT22;1020;48.854;8.830;2022-10-03T01:00:01;11.00;99.90
2030;DHT22;1020;48.854;8.830;2022-10-03T01:02:46;10.90;99.90
2030;DHT22;1020;48.854;8.830;2022-10-03T01:05:23;10.90;99.90
2030;DHT22;1020;48.854;8.830;2022-10-03T01:08:22;10.90;99.90
2030;DHT22;1020;48.854;8.830;2022-10-03T01:10:58;11.00;99.90
2030;DHT22;1020;48.854;8.830;2022-10-03T01:13:36;11.00;99.90
2030;DHT22;1020;48.854;8.830;2022-10-03T01:16:13;11.00;99.90
2030;DHT22;1020;48.854;8.830;2022-10-03T01:18:54;10.90;99.90
2030;DHT22;1020;48.854;8.830;2022-10-03T01:21:34;10.90;99.90
2030;DHT22;1020;48.854;8.830;2022-10-03T01:26:58;11.00;99.90
2030;DHT22;1020;48.854;8.830;2022-10-03T01:29:47;11.10;99.90
2030;DHT22;1020;48.854;8.830;2022-10-03T01:32:39;11.10;99.90
2030;DHT22;1020;48.854;8.830;2022-10-03T01:35:16;11.00;99.90
2030;DHT22;1020;48.854;8.830;2022-10-03T01:37:52;11.00;99.90
2030;DHT22;1020;48.854;8.830;2022-10-03T01:40:24;10.90;99.90
2030;DHT22;1020;48.854;8.830;2022-10-03T01:43:08;10.90;99.90
2030;DHT22;1020;48.854;8.830;2022-10-03T01:45:45;10.90;99.90
2030;DHT22;1020;48.854;8.830;2022-10-03T01:48:20;10.90;99.90
2030;DHT22;1020;48.854;8.830;2022-10-03T01:50:52;11.00;99.90
2030;DHT22;1020;48.854;8.830;2022-10-03T01:53:25;11.00;99.90
2030;DHT22;1020;48.854;8.830;2022-10-03T01:55:59;11.10;99.90
2030;DHT22;1020;48.854;8.830;2022-10-03T01:58:36;11.10;99.90
2030;DHT22;1020;48.854;8.830;2022-10-03T02:01:11;11.10;99.90
2030;DHT22;1020;48.854;8.830;2022-10-03T02:03:45;11.10;99.90
2030;DHT22;1020;48.854;8.830;2022-10-03T02:06:20;11.20;99.90
2030;DHT22;1020;48.854;8.830;2022-10-03T02:08:55;11.20;99.90
2030;DHT22;1020;48.854;8.830;2022-10-03T02:11:30;11.20;99.90
2030;DHT22;1020;48.854;8.830;2022-10-03T02:14:06;11.10;99.90
2030;DHT22;1020;48.854;8.830;2022-10-03T02:16:42;11.20;99.90
2030;DHT22;1020;48.854;8.830;2022-10-03T02:19:16;11.20;99.90
2030;DHT22;1020;48.854;8.830;2022-10-03T02:21:48;11.30;99.90
2030;DHT22;1020;48.854;8.830;2022-10-03T02:24:27;11.30;99.90
2030;DHT22;1020;48.854;8.830;2022-10-03T02:27:09;11.30;99.90
2030;DHT22;1020;48.854;8.830;2022-10-03T02:29:55;11.20;99.90
2030;DHT22;1020;48.854;8.830;2022-10-03T02:35:59;11.10;99.90
2030;DHT22;1020;48.854;8.830;2022-10-03T02:41:50;11.10;99.90
2030;DHT22;1020;48.854;8.830;2022-10-03T02:50:45;11.00;99.90
2030;DHT22;1020;48.854;8.830;2022-10-03T02:53:41;10.90;99.90
2030;DHT22;1020;48.854;8.830;2022-10-03T02:56:44;10.90;99.90
2030;DHT22;1020;48.854;8.830;2022-10-03T03:02:50;10.80;99.90
2030;DHT22;1020;48.854;8.830;2022-10-03T03:05:58;10.70;99.90
2030;DHT22;1020;48.854;8.830;2022-10-03T03:17:48;10.40;99.90
2030;DHT22;1020;48.854;8.830;2022-10-03T03:20:31;10.30;99.90
2030;DHT22;1020;48.854;8.830;2022-10-03T03:23:24;10.20;99.90
2030;DHT22;1020;48.854;8.830;2022-10-03T03:28:56;10.20;99.90
2030;DHT22;1020;48.854;8.830;2022-10-03T03:31:31;10.10;99.90
2030;DHT22;1020;48.854;8.830;2022-10-03T03:34:05;10.10;99.90
2030;DHT22;1020;48.854;8.830;2022-10-03T03:36:37;10.10;99.90
2030;DHT22;1020;48.854;8.830;2022-10-03T03:39:28;10.00;99.90
2030;DHT22;1020;48.854;8.830;2022-10-03T03:42:15;9.90;99.90
2030;DHT22;1020;48.854;8.830;2022-10-03T03:44:57;9.80;99.90
2030;DHT22;1020;48.854;8.830;2022-10-03T03:47:53;9.80;99.90
2030;DHT22;1020;48.854;8.830;2022-10-03T03:50:32;9.80;99.90
2030;DHT22;1020;48.854;8.830;2022-10-03T03:56:32;9.70;99.90
2030;DHT22;1020;48.854;8.830;2022-10-03T03:59:12;9.60;99.90
2030;DHT22;1020;48.854;8.830;2022-10-03T04:02:05;9.60;99.90
2030;DHT22;1020;48.854;8.830;2022-10-03T04:04:43;9.70;99.90
2030;DHT22;1020;48.854;8.830;2022-10-03T04:07:19;9.70;99.90
2030;DHT22;1020;48.854;8.830;2022-10-03T04:10:07;9.80;99.90
2030;DHT22;1020;48.854;8.830;2022-10-03T04:12:59;9.80;99.90
2030;DHT22;1020;48.854;8.830;2022-10-03T04:15:39;9.80;99.90
2030;DHT22;1020;48.854;8.830;2022-10-03T04:21:44;9.80;99.90
2030;DHT22;1020;48.854;8.830;2022-10-03T04:24:28;9.80;99.90
2030;DHT22;1020;48.854;8.830;2022-10-03T04:27:11;9.80;99.90
2030;DHT22;1020;48.854;8.830;2022-10-03T04:29:45;9.70;99.90
2030;DHT22;1020;48.854;8.830;2022-10-03T04:32:29;9.80;99.90
2030;DHT22;1020;48.854;8.830;2022-10-03T04:35:27;9.90;99.90
2030;DHT22;1020;48.854;8.830;2022-10-03T04:37:59;9.90;99.90
2030;DHT22;1020;48.854;8.830;2022-10-03T04:40:44;9.90;99.90
2030;DHT22;1020;48.854;8.830;2022-10-03T04:43:22;9.90;99.90
2030;DHT22;1020;48.854;8.830;2022-10-03T04:46:15;9.90;99.90
2030;DHT22;1020;48.854;8.830;2022-10-03T04:48:53;9.90;99.90
2030;DHT22;1020;48.854;8.830;2022-10-03T04:51:32;9.90;99.90
2030;DHT22;1020;48.854;8.830;2022-10-03T04:54:12;9.90;99.90
2030;DHT22;1020;48.854;8.830;2022-10-03T04:56:47;10.00;99.90
2030;DHT22;1020;48.854;8.830;2022-10-03T04:59:37;10.00;99.90
2030;DHT22;1020;48.854;8.830;2022-10-03T05:02:15;10.10;99.90
2030;DHT22;1020;48.854;8.830;2022-10-03T05:04:53;10.10;99.90
2030;DHT22;1020;48.854;8.830;2022-10-03T05:07:30;10.20;99.90
2030;DHT22;1020;48.854;8.830;2022-10-03T05:10:01;10.20;99.90
2030;DHT22;1020;48.854;8.830;2022-10-03T05:12:34;10.20;99.90
2030;DHT22;1020;48.854;8.830;2022-10-03T05:15:22;10.20;99.90
2030;DHT22;1020;48.854;8.830;2022-10-03T05:17:59;10.30;99.90
2030;DHT22;1020;48.854;8.830;2022-10-03T05:20:43;10.10;99.90
2030;DHT22;1020;48.854;8.830;2022-10-03T05:23:26;10.20;99.90
2030;DHT22;1020;48.854;8.830;2022-10-03T05:26:03;10.20;99.90
2030;DHT22;1020;48.854;8.830;2022-10-03T05:28:36;10.20;99.90
2030;DHT22;1020;48.854;8.830;2022-10-03T05:31:13;10.30;99.90
2030;DHT22;1020;48.854;8.830;2022-10-03T05:33:45;10.40;99.90
2030;DHT22;1020;48.854;8.830;2022-10-03T05:36:26;10.50;99.90
2030;DHT22;1020;48.854;8.830;2022-10-03T05:42:13;10.50;99.90
2030;DHT22;1020;48.854;8.830;2022-10-03T05:44:45;10.60;99.90
2030;DHT22;1020;48.854;8.830;2022-10-03T05:47:22;10.50;99.90
2030;DHT22;1020;48.854;8.830;2022-10-03T05:56:38;10.60;99.90
2030;DHT22;1020;48.854;8.830;2022-10-03T06:05:32;10.70;99.90
2030;DHT22;1020;48.854;8.830;2022-10-03T06:11:16;10.80;99.90
2030;DHT22;1020;48.854;8.830;2022-10-03T06:14:03;10.90;99.90
2030;DHT22;1020;48.854;8.830;2022-10-03T06:16:39;11.00;99.90
2030;DHT22;1020;48.854;8.830;2022-10-03T06:19:17;11.00;99.90
2030;DHT22;1020;48.854;8.830;2022-10-03T06:25:27;10.90;99.90
2030;DHT22;1020;48.854;8.830;2022-10-03T06:34:30;10.80;99.90
2030;DHT22;1020;48.854;8.830;2022-10-03T06:40:22;11.00;99.90
2030;DHT22;1020;48.854;8.830;2022-10-03T06:43:10;11.20;99.90
2030;DHT22;1020;48.854;8.830;2022-10-03T06:46:06;11.40;99.90
2030;DHT22;1020;48.854;8.830;2022-10-03T06:49:24;11.30;99.90
2030;DHT22;1020;48.854;8.830;2022-10-03T06:52:15;11.20;99.90
2030;DHT22;1020;48.854;8.830;2022-10-03T06:55:10;11.30;99.90
2030;DHT22;1020;48.854;8.830;2022-10-03T07:00:46;11.50;99.90
2030;DHT22;1020;48.854;8.830;2022-10-03T07:03:58;11.40;99.90
2030;DHT22;1020;48.854;8.830;2022-10-03T07:10:03;11.60;99.90
2030;DHT22;1020;48.854;8.830;2022-10-03T07:13:00;11.80;99.90
2030;DHT22;1020;48.854;8.830;2022-10-03T07:15:44;11.90;99.90
2030;DHT22;1020;48.854;8.830;2022-10-03T07:31:13;12.40;99.90
2030;DHT22;1020;48.854;8.830;2022-10-03T07:37:14;12.60;99.90
2030;DHT22;1020;48.854;8.830;2022-10-03T07:40:29;12.70;99.90
2030;DHT22;1020;48.854;8.830;2022-10-03T07:43:22;12.50;99.90
2030;DHT22;1020;48.854;8.830;2022-10-03T07:46:33;12.40;99.90
2030;DHT22;1020;48.854;8.830;2022-10-03T07:49:19;12.50;99.90
2030;DHT22;1020;48.854;8.830;2022-10-03T07:52:06;12.60;99.90
2030;DHT22;1020;48.854;8.830;2022-10-03T07:54:59;12.60;99.90
2030;DHT22;1020;48.854;8.830;2022-10-03T07:57:41;12.70;99.90
2030;DHT22;1020;48.854;8.830;2022-10-03T08:00:19;12.90;99.90
2030;DHT22;1020;48.854;8.830;2022-10-03T08:06:18;12.90;99.90
2030;DHT22;1020;48.854;8.830;2022-10-03T08:09:22;12.90;99.90
2030;DHT22;1020;48.854;8.830;2022-10-03T08:12:40;13.00;99.90
2030;DHT22;1020;48.854;8.830;2022-10-03T08:15:22;13.10;99.90
2030;DHT22;1020;48.854;8.830;2022-10-03T08:18:03;13.20;99.90
2030;DHT22;1020;48.854;8.830;2022-10-03T08:20:54;13.30;99.90
2030;DHT22;1020;48.854;8.830;2022-10-03T08:23:46;13.40;99.90
2030;DHT22;1020;48.854;8.830;2022-10-03T08:26:29;13.30;99.90
2030;DHT22;1020;48.854;8.830;2022-10-03T08:29:29;13.40;99.90
2030;DHT22;1020;48.854;8.830;2022-10-03T08:38:37;13.30;72.80
2030;DHT22;1020;48.854;8.830;2022-10-03T08:41:43;13.50;98.70
2030;DHT22;1020;48.854;8.830;2022-10-03T08:44:37;13.70;99.90
2030;DHT22;1020;48.854;8.830;2022-10-03T08:47:48;13.80;93.10
2030;DHT22;1020;48.854;8.830;2022-10-03T08:50:45;14.00;99.90
2030;DHT22;1020;48.854;8.830;2022-10-03T08:53:41;13.80;59.70
2030;DHT22;1020;48.854;8.830;2022-10-03T08:56:15;13.40;39.90
2030;DHT22;1020;48.854;8.830;2022-10-03T08:59:14;13.50;97.00
2030;DHT22;1020;48.854;8.830;2022-10-03T09:02:33;13.70;87.20
2030;DHT22;1020;48.854;8.830;2022-10-03T09:05:32;13.70;18.10
2030;DHT22;1020;48.854;8.830;2022-10-03T09:08:28;14.50;55.40
2030;DHT22;1020;48.854;8.830;2022-10-03T09:11:14;15.40;1.00
2030;DHT22;1020;48.854;8.830;2022-10-03T09:20:42;16.50;1.00
2030;DHT22;1020;48.854;8.830;2022-10-03T09:26:50;17.00;99.90
2030;DHT22;1020;48.854;8.830;2022-10-03T09:29:35;17.30;99.90
2030;DHT22;1020;48.854;8.830;2022-10-03T09:32:29;18.10;1.00
2030;DHT22;1020;48.854;8.830;2022-10-03T09:35:26;18.40;1.00
2030;DHT22;1020;48.854;8.830;2022-10-03T09:44:26;19.00;99.90
2030;DHT22;1020;48.854;8.830;2022-10-03T09:47:33;19.90;1.00
2030;DHT22;1020;48.854;8.830;2022-10-03T09:56:56;22.20;1.00
2030;DHT22;1020;48.854;8.830;2022-10-03T09:59:47;23.00;1.00
2030;DHT22;1020;48.854;8.830;2022-10-03T10:02:44;23.10;1.00
2030;DHT22;1020;48.854;8.830;2022-10-03T10:08:32;22.90;1.00
2030;DHT22;1020;48.854;8.830;2022-10-03T10:11:16;23.40;1.00
2030;DHT22;1020;48.854;8.830;2022-10-03T10:17:31;22.90;1.00
2030;DHT22;1020;48.854;8.830;2022-10-03T10:20:19;21.70;1.00
2030;DHT22;1020;48.854;8.830;2022-10-03T10:23:21;19.60;32.60
2030;DHT22;1020;48.854;8.830;2022-10-03T10:29:24;19.00;1.00
2030;DHT22;1020;48.854;8.830;2022-10-03T10:32:27;19.00;1.00
2030;DHT22;1020;48.854;8.830;2022-10-03T10:35:28;20.00;2.10
2030;DHT22;1020;48.854;8.830;2022-10-03T10:41:34;22.40;1.00
2030;DHT22;1020;48.854;8.830;2022-10-03T10:44:34;23.00;1.00
2030;DHT22;1020;48.854;8.830;2022-10-03T10:47:11;23.90;1.00
2030;DHT22;1020;48.854;8.830;2022-10-03T10:56:18;22.70;1.00
2030;DHT22;1020;48.854;8.830;2022-10-03T11:02:30;23.40;1.00
2030;DHT22;1020;48.854;8.830;2022-10-03T11:08:39;23.20;1.00
2030;DHT22;1020;48.854;8.830;2022-10-03T11:14:37;22.30;1.00
2030;DHT22;1020;48.854;8.830;2022-10-03T11:17:41;21.90;1.00
2030;DHT22;1020;48.854;8.830;2022-10-03T11:20:55;20.90;99.90
2030;DHT22;1020;48.854;8.830;2022-10-03T11:24:20;20.20;1.00
2030;DHT22;1020;48.854;8.830;2022-10-03T11:27:16;20.10;1.00
2030;DHT22;1020;48.854;8.830;2022-10-03T11:30:27;20.40;1.00
2030;DHT22;1020;48.854;8.830;2022-10-03T11:39:21;19.80;1.00
2030;DHT22;1020;48.854;8.830;2022-10-03T11:41:55;19.60;1.00
2030;DHT22;1020;48.854;8.830;2022-10-03T11:44:29;19.10;31.10
2030;DHT22;1020;48.854;8.830;2022-10-03T11:47:15;19.20;24.90
2030;DHT22;1020;48.854;8.830;2022-10-03T11:50:11;19.50;1.00
2030;DHT22;1020;48.854;8.830;2022-10-03T11:52:51;19.90;1.00
2030;DHT22;1020;48.854;8.830;2022-10-03T11:55:28;20.90;1.00
2030;DHT22;1020;48.854;8.830;2022-10-03T11:58:10;22.20;1.00
2030;DHT22;1020;48.854;8.830;2022-10-03T12:00:42;23.30;99.90
2030;DHT22;1020;48.854;8.830;2022-10-03T12:03:16;24.30;99.90
2030;DHT22;1020;48.854;8.830;2022-10-03T12:05:49;25.30;99.90
2030;DHT22;1020;48.854;8.830;2022-10-03T12:08:41;24.60;99.90
2030;DHT22;1020;48.854;8.830;2022-10-03T12:11:23;24.30;99.90
2030;DHT22;1020;48.854;8.830;2022-10-03T12:14:04;24.00;99.90
2030;DHT22;1020;48.854;8.830;2022-10-03T12:16:48;23.80;99.90
2030;DHT22;1020;48.854;8.830;2022-10-03T12:19:27;23.30;99.90
2030;DHT22;1020;48.854;8.830;2022-10-03T12:24:25;22.40;99.90
2030;DHT22;1020;48.854;8.830;2022-10-03T12:27:02;22.30;99.90
2030;DHT22;1020;48.854;8.830;2022-10-03T12:29:33;22.40;99.90
2030;DHT22;1020;48.854;8.830;2022-10-03T12:32:15;22.30;99.90
2030;DHT22;1020;48.854;8.830;2022-10-03T12:34:49;21.60;99.90
2030;DHT22;1020;48.854;8.830;2022-10-03T12:37:43;21.70;1.00
2030;DHT22;1020;48.854;8.830;2022-10-03T12:40:15;22.30;99.90
2030;DHT22;1020;48.854;8.830;2022-10-03T12:42:47;23.00;99.90
2030;DHT22;1020;48.854;8.830;2022-10-03T12:45:24;24.00;99.90
2030;DHT22;1020;48.854;8.830;2022-10-03T12:48:01;24.50;99.90
2030;DHT22;1020;48.854;8.830;2022-10-03T12:50:40;24.80;99.90
2030;DHT22;1020;48.854;8.830;2022-10-03T12:53:22;24.70;99.90
2030;DHT22;1020;48.854;8.830;2022-10-03T12:56:01;23.80;99.90
2030;DHT22;1020;48.854;8.830;2022-10-03T12:58:38;24.00;99.90
2030;DHT22;1020;48.854;8.830;2022-10-03T13:01:14;23.90;99.90
2030;DHT22;1020;48.854;8.830;2022-10-03T13:03:49;24.40;99.90
2030;DHT22;1020;48.854;8.830;2022-10-03T13:06:34;24.90;99.90
2030;DHT22;1020;48.854;8.830;2022-10-03T13:09:24;25.30;99.90
2030;DHT22;1020;48.854;8.830;2022-10-03T13:12:01;25.60;99.90
2030;DHT22;1020;48.854;8.830;2022-10-03T13:17:30;24.60;99.90
2030;DHT22;1020;48.854;8.830;2022-10-03T13:20:03;23.80;99.90
2030;DHT22;1020;48.854;8.830;2022-10-03T13:22:40;23.30;99.90
2030;DHT22;1020;48.854;8.830;2022-10-03T13:25:15;23.40;99.90
2030;DHT22;1020;48.854;8.830;2022-10-03T13:27:47;23.30;99.90
2030;DHT22;1020;48.854;8.830;2022-10-03T13:30:19;22.60;99.90
2030;DHT22;1020;48.854;8.830;2022-10-03T13:32:51;22.30;99.90
2030;DHT22;1020;48.854;8.830;2022-10-03T13:35:31;22.00;99.90
2030;DHT22;1020;48.854;8.830;2022-10-03T13:38:42;21.80;99.90
2030;DHT22;1020;48.854;8.830;2022-10-03T13:41:18;21.60;99.90
2030;DHT22;1020;48.854;8.830;2022-10-03T13:43:56;21.40;99.90
2030;DHT22;1020;48.854;8.830;2022-10-03T13:46:28;21.10;99.90
2030;DHT22;1020;48.854;8.830;2022-10-03T13:48:58;20.90;99.90
2030;DHT22;1020;48.854;8.830;2022-10-03T13:51:33;20.40;99.90
2030;DHT22;1020;48.854;8.830;2022-10-03T13:54:08;20.20;99.90
2030;DHT22;1020;48.854;8.830;2022-10-03T13:56:48;20.50;99.90
2030;DHT22;1020;48.854;8.830;2022-10-03T13:59:35;20.70;1.00
2030;DHT22;1020;48.854;8.830;2022-10-03T14:02:17;21.00;99.90
2030;DHT22;1020;48.854;8.830;2022-10-03T14:05:09;20.70;99.90
2030;DHT22;1020;48.854;8.830;2022-10-03T14:07:47;20.30;99.90
2030;DHT22;1020;48.854;8.830;2022-10-03T14:10:25;19.90;99.90
2030;DHT22;1020;48.854;8.830;2022-10-03T14:13:08;20.20;1.00
2030;DHT22;1020;48.854;8.830;2022-10-03T14:15:47;20.60;1.00
2030;DHT22;1020;48.854;8.830;2022-10-03T14:18:40;20.80;1.00
2030;DHT22;1020;48.854;8.830;2022-10-03T14:24:23;21.40;1.00
2030;DHT22;1020;48.854;8.830;2022-10-03T14:26:58;21.50;99.90
2030;DHT22;1020;48.854;8.830;2022-10-03T14:29:32;21.40;99.90
2030;DHT22;1020;48.854;8.830;2022-10-03T14:32:06;21.50;99.90
2030;DHT22;1020;48.854;8.830;2022-10-03T14:34:43;21.40;99.90
2030;DHT22;1020;48.854;8.830;2022-10-03T14:37:22;20.90;99.90
2030;DHT22;1020;48.854;8.830;2022-10-03T14:40:00;21.10;99.90
2030;DHT22;1020;48.854;8.830;2022-10-03T14:42:46;21.20;99.90
2030;DHT22;1020;48.854;8.830;2022-10-03T14:45:17;21.60;99.90
2030;DHT22;1020;48.854;8.830;2022-10-03T14:47:50;22.00;99.90
2030;DHT22;1020;48.854;8.830;2022-10-03T14:50:21;22.30;99.90
2030;DHT22;1020;48.854;8.830;2022-10-03T14:52:54;22.60;99.90
2030;DHT22;1020;48.854;8.830;2022-10-03T14:55:29;22.60;99.90
2030;DHT22;1020;48.854;8.830;2022-10-03T14:58:01;22.50;99.90
2030;DHT22;1020;48.854;8.830;2022-10-03T15:00:37;22.40;99.90
2030;DHT22;1020;48.854;8.830;2022-10-03T15:03:26;22.00;99.90
2030;DHT22;1020;48.854;8.830;2022-10-03T15:06:18;21.30;99.90
2030;DHT22;1020;48.854;8.830;2022-10-03T15:08:47;21.40;99.90
2030;DHT22;1020;48.854;8.830;2022-10-03T15:11:21;21.20;99.90
2030;DHT22;1020;48.854;8.830;2022-10-03T15:13:54;21.40;99.90
2030;DHT22;1020;48.854;8.830;2022-10-03T15:16:23;21.60;99.90
2030;DHT22;1020;48.854;8.830;2022-10-03T15:18:53;21.30;99.90
2030;DHT22;1020;48.854;8.830;2022-10-03T15:21:22;21.20;99.90
2030;DHT22;1020;48.854;8.830;2022-10-03T15:23:54;20.90;99.90
2030;DHT22;1020;48.854;8.830;2022-10-03T15:26:24;20.50;1.00
2030;DHT22;1020;48.854;8.830;2022-10-03T15:28:56;20.30;1.00
2030;DHT22;1020;48.854;8.830;2022-10-03T15:31:33;20.20;1.00
2030;DHT22;1020;48.854;8.830;2022-10-03T15:34:02;20.10;1.00
2030;DHT22;1020;48.854;8.830;2022-10-03T15:36:33;20.00;1.00
2030;DHT22;1020;48.854;8.830;2022-10-03T15:39:05;19.80;1.00
2030;DHT22;1020;48.854;8.830;2022-10-03T15:41:34;19.80;1.00
2030;DHT22;1020;48.854;8.830;2022-10-03T15:44:10;19.60;1.00
2030;DHT22;1020;48.854;8.830;2022-10-03T15:46:43;19.00;1.00
2030;DHT22;1020;48.854;8.830;2022-10-03T15:49:18;19.00;1.00
2030;DHT22;1020;48.854;8.830;2022-10-03T15:51:47;19.20;1.00
2030;DHT22;1020;48.854;8.830;2022-10-03T15:54:18;19.10;1.00
2030;DHT22;1020;48.854;8.830;2022-10-03T15:56:51;19.10;1.00
2030;DHT22;1020;48.854;8.830;2022-10-03T15:59:22;19.00;1.00
2030;DHT22;1020;48.854;8.830;2022-10-03T16:01:53;18.80;1.00
2030;DHT22;1020;48.854;8.830;2022-10-03T16:04:23;18.70;12.70
2030;DHT22;1020;48.854;8.830;2022-10-03T16:06:58;18.60;52.80
2030;DHT22;1020;48.854;8.830;2022-10-03T16:09:31;18.50;99.90
2030;DHT22;1020;48.854;8.830;2022-10-03T16:12:11;18.30;99.90
2030;DHT22;1020;48.854;8.830;2022-10-03T16:14:43;18.20;99.90
2030;DHT22;1020;48.854;8.830;2022-10-03T16:17:15;18.00;99.90
2030;DHT22;1020;48.854;8.830;2022-10-03T16:19:50;17.80;99.90
2030;DHT22;1020;48.854;8.830;2022-10-03T16:22:21;17.70;99.90
2030;DHT22;1020;48.854;8.830;2022-10-03T16:25:00;17.50;99.90
2030;DHT22;1020;48.854;8.830;2022-10-03T16:27:30;17.40;99.90
2030;DHT22;1020;48.854;8.830;2022-10-03T16:30:13;17.20;99.90
2030;DHT22;1020;48.854;8.830;2022-10-03T16:32:44;17.10;99.90
2030;DHT22;1020;48.854;8.830;2022-10-03T16:35:29;16.90;99.90
2030;DHT22;1020;48.854;8.830;2022-10-03T16:37:59;16.80;1.00
2030;DHT22;1020;48.854;8.830;2022-10-03T16:40:26;16.70;1.00
2030;DHT22;1020;48.854;8.830;2022-10-03T16:42:55;16.50;99.90
2030;DHT22;1020;48.854;8.830;2022-10-03T16:45:27;16.40;99.90
2030;DHT22;1020;48.854;8.830;2022-10-03T16:47:58;16.20;1.00
2030;DHT22;1020;48.854;8.830;2022-10-03T16:50:46;16.00;99.90
2030;DHT22;1020;48.854;8.830;2022-10-03T16:53:15;15.90;99.90
2030;DHT22;1020;48.854;8.830;2022-10-03T16:55:46;15.70;99.90
2030;DHT22;1020;48.854;8.830;2022-10-03T16:58:18;15.50;99.90
2030;DHT22;1020;48.854;8.830;2022-10-03T17:00:53;15.30;99.90
2030;DHT22;1020;48.854;8.830;2022-10-03T17:03:23;15.10;1.00
2030;DHT22;1020;48.854;8.830;2022-10-03T17:05:53;14.80;1.00
2030;DHT22;1020;48.854;8.830;2022-10-03T17:08:26;14.60;99.90
2030;DHT22;1020;48.854;8.830;2022-10-03T17:10:54;14.50;99.90
2030;DHT22;1020;48.854;8.830;2022-10-03T17:13:25;14.30;99.90
2030;DHT22;1020;48.854;8.830;2022-10-03T17:16:00;14.20;99.90
2030;DHT22;1020;48.854;8.830;2022-10-03T17:18:33;14.00;1.00
2030;DHT22;1020;48.854;8.830;2022-10-03T17:21:07;13.90;99.90
2030;DHT22;1020;48.854;8.830;2022-10-03T17:23:38;13.70;17.60
2030;DHT22;1020;48.854;8.830;2022-10-03T17:26:08;13.50;99.90
2030;DHT22;1020;48.854;8.830;2022-10-03T17:28:42;13.40;99.90
2030;DHT22;1020;48.854;8.830;2022-10-03T17:31:31;13.20;99.90
2030;DHT22;1020;48.854;8.830;2022-10-03T17:34:08;13.10;99.90
2030;DHT22;1020;48.854;8.830;2022-10-03T17:39:42;12.80;99.90
2030;DHT22;1020;48.854;8.830;2022-10-03T17:42:22;12.60;1.00
2030;DHT22;1020;48.854;8.830;2022-10-03T17:44:56;12.60;1.00
2030;DHT22;1020;48.854;8.830;2022-10-03T17:47:32;12.40;1.00
2030;DHT22;1020;48.854;8.830;2022-10-03T17:50:05;12.20;99.90
2030;DHT22;1020;48.854;8.830;2022-10-03T17:52:39;12.00;99.90
2030;DHT22;1020;48.854;8.830;2022-10-03T17:55:08;11.80;1.00
2030;DHT22;1020;48.854;8.830;2022-10-03T17:57:42;11.80;1.00
2030;DHT22;1020;48.854;8.830;2022-10-03T18:00:17;11.70;1.00
2030;DHT22;1020;48.854;8.830;2022-10-03T18:02:53;11.60;1.00
2030;DHT22;1020;48.854;8.830;2022-10-03T18:05:24;11.50;1.00
2030;DHT22;1020;48.854;8.830;2022-10-03T18:07:53;11.40;1.00
2030;DHT22;1020;48.854;8.830;2022-10-03T18:10:24;11.30;1.00
2030;DHT22;1020;48.854;8.830;2022-10-03T18:12:54;11.30;1.00
2030;DHT22;1020;48.854;8.830;2022-10-03T18:15:38;11.20;1.00
2030;DHT22;1020;48.854;8.830;2022-10-03T18:21:33;11.00;1.00
2030;DHT22;1020;48.854;8.830;2022-10-03T18:24:24;11.00;1.00
2030;DHT22;1020;48.854;8.830;2022-10-03T18:27:07;10.90;1.00
2030;DHT22;1020;48.854;8.830;2022-10-03T18:29:40;10.80;1.00
2030;DHT22;1020;48.854;8.830;2022-10-03T18:32:15;10.70;1.00
2030;DHT22;1020;48.854;8.830;2022-10-03T18:34:46;10.70;1.00
2030;DHT22;1020;48.854;8.830;2022-10-03T18:37:52;10.60;1.00
2030;DHT22;1020;48.854;8.830;2022-10-03T18:40:24;10.50;1.00
2030;DHT22;1020;48.854;8.830;2022-10-03T18:42:52;10.40;1.00
2030;DHT22;1020;48.854;8.830;2022-10-03T18:45:22;10.40;1.00
2030;DHT22;1020;48.854;8.830;2022-10-03T18:47:54;10.30;1.00
2030;DHT22;1020;48.854;8.830;2022-10-03T18:50:28;10.30;1.00
2030;DHT22;1020;48.854;8.830;2022-10-03T18:53:00;10.20;1.00
2030;DHT22;1020;48.854;8.830;2022-10-03T18:55:35;10.20;1.00
2030;DHT22;1020;48.854;8.830;2022-10-03T18:58:11;10.10;1.00
2030;DHT22;1020;48.854;8.830;2022-10-03T19:00:49;10.00;1.00
2030;DHT22;1020;48.854;8.830;2022-10-03T19:03:18;9.90;3.40
2030;DHT22;1020;48.854;8.830;2022-10-03T19:05:48;9.80;15.60
2030;DHT22;1020;48.854;8.830;2022-10-03T19:08:21;9.70;25.70
2030;DHT22;1020;48.854;8.830;2022-10-03T19:10:50;9.70;27.00
2030;DHT22;1020;48.854;8.830;2022-10-03T19:13:26;9.60;37.00
2030;DHT22;1020;48.854;8.830;2022-10-03T19:16:13;9.50;48.30
2030;DHT22;1020;48.854;8.830;2022-10-03T19:18:42;9.40;52.40
2030;DHT22;1020;48.854;8.830;2022-10-03T19:21:14;9.30;69.20
2030;DHT22;1020;48.854;8.830;2022-10-03T19:23:50;9.20;99.90
2030;DHT22;1020;48.854;8.830;2022-10-03T19:26:23;9.10;99.90
2030;DHT22;1020;48.854;8.830;2022-10-03T19:28:54;9.10;99.90
2030;DHT22;1020;48.854;8.830;2022-10-03T19:31:25;9.10;99.90
2030;DHT22;1020;48.854;8.830;2022-10-03T19:33:57;9.10;99.90
2030;DHT22;1020;48.854;8.830;2022-10-03T19:36:28;9.10;99.90
2030;DHT22;1020;48.854;8.830;2022-10-03T19:38:57;9.20;99.90
2030;DHT22;1020;48.854;8.830;2022-10-03T19:41:28;9.10;99.90
2030;DHT22;1020;48.854;8.830;2022-10-03T19:44:02;9.10;99.90
2030;DHT22;1020;48.854;8.830;2022-10-03T19:49:42;9.10;99.90
2030;DHT22;1020;48.854;8.830;2022-10-03T19:52:16;9.00;99.90
2030;DHT22;1020;48.854;8.830;2022-10-03T19:54:49;8.90;99.90
2030;DHT22;1020;48.854;8.830;2022-10-03T19:57:19;8.90;99.90
2030;DHT22;1020;48.854;8.830;2022-10-03T19:59:50;8.80;99.90
2030;DHT22;1020;48.854;8.830;2022-10-03T20:02:21;8.80;99.90
2030;DHT22;1020;48.854;8.830;2022-10-03T20:04:51;8.80;99.90
2030;DHT22;1020;48.854;8.830;2022-10-03T20:07:33;8.80;99.90
2030;DHT22;1020;48.854;8.830;2022-10-03T20:10:20;8.80;99.90
2030;DHT22;1020;48.854;8.830;2022-10-03T20:12:50;8.80;99.90
2030;DHT22;1020;48.854;8.830;2022-10-03T20:15:21;8.70;99.90
2030;DHT22;1020;48.854;8.830;2022-10-03T20:17:48;8.70;99.90
2030;DHT22;1020;48.854;8.830;2022-10-03T20:20:19;8.60;99.90
2030;DHT22;1020;48.854;8.830;2022-10-03T20:22:48;8.60;99.90
2030;DHT22;1020;48.854;8.830;2022-10-03T20:25:26;8.60;99.90
2030;DHT22;1020;48.854;8.830;2022-10-03T20:28:00;8.50;99.90
2030;DHT22;1020;48.854;8.830;2022-10-03T20:30:37;8.40;99.90
2030;DHT22;1020;48.854;8.830;2022-10-03T20:33:15;8.30;99.90
2030;DHT22;1020;48.854;8.830;2022-10-03T20:35:54;8.30;99.90
2030;DHT22;1020;48.854;8.830;2022-10-03T20:38:29;8.30;99.90